sensor_id;sensor_type;location;lat;lon;timestamp;temperature;humidity
67897;DHT22;54698;48.428;9.964;2022-09-13T00:02:18;11.30;99.90
67897;DHT22;54698;48.428;9.964;2022-09-13T00:04:45;11.30;99.90
67897;DHT22;54698;48.428;9.964;2022-09-13T00:07:11;11.20;99.90
67897;DHT22;54698;48.428;9.964;2022-09-13T00:09:37;11.20;99.90
67897;DHT22;54698;48.428;9.964;2022-09-13T00:12:03;11.20;99.90
67897;DHT22;54698;48.428;9.964;2022-09-13T00:14:29;11.20;99.90
67897;DHT22;54698;48.428;9.964;2022-09-13T00:16:55;11.30;99.90
67897;DHT22;54698;48.428;9.964;2022-09-13T00:19:21;11.40;99.90
67897;DHT22;54698;48.428;9.964;2022-09-13T00:21:48;11.50;99.90
67897;DHT22;54698;48.428;9.964;2022-09-13T00:24:13;11.50;99.90
67897;DHT22;54698;48.428;9.964;2022-09-13T00:26:39;11.50;99.90
67897;DHT22;54698;48.428;9.964;2022-09-13T00:29:05;11.40;99.90
67897;DHT22;54698;48.428;9.964;2022-09-13T00:31:31;11.40;99.90
67897;DHT22;54698;48.428;9.964;2022-09-13T00:33:58;11.50;99.90
67897;DHT22;54698;48.428;9.964;2022-09-13T00:36:24;11.60;99.90
67897;DHT22;54698;48.428;9.964;2022-09-13T00:38:51;11.60;99.90
67897;DHT22;54698;48.428;9.964;2022-09-13T00:41:19;11.60;99.90
67897;DHT22;54698;48.428;9.964;2022-09-13T00:43:48;11.80;99.90
67897;DHT22;54698;48.428;9.964;2022-09-13T00:46:20;12.00;99.90
67897;DHT22;54698;48.428;9.964;2022-09-13T00:48:53;12.20;99.90
67897;DHT22;54698;48.428;9.964;2022-09-13T00:51:20;12.40;99.90
67897;DHT22;54698;48.428;9.964;2022-09-13T00:53:51;12.60;99.90
67897;DHT22;54698;48.428;9.964;2022-09-13T00:56:21;12.80;99.90
67897;DHT22;54698;48.428;9.964;2022-09-13T00:58:52;13.00;99.90
67897;DHT22;54698;48.428;9.964;2022-09-13T01:01:22;13.00;99.90
67897;DHT22;54698;48.428;9.964;2022-09-13T01:03:50;12.80;99.90
67897;DHT22;54698;48.428;9.964;2022-09-13T01:06:19;12.80;99.90
67897;DHT22;54698;48.428;9.964;2022-09-13T01:08:47;12.70;99.90
67897;DHT22;54698;48.428;9.964;2022-09-13T01:11:19;12.50;99.90
67897;DHT22;54698;48.428;9.964;2022-09-13T01:13:48;12.30;99.90
67897;DHT22;54698;48.428;9.964;2022-09-13T01:16:14;12.00;99.90
67897;DHT22;54698;48.428;9.964;2022-09-13T01:18:40;11.70;99.90
67897;DHT22;54698;48.428;9.964;2022-09-13T01:21:43;11.50;99.90
67897;DHT22;54698;48.428;9.964;2022-09-13T01:24:55;11.40;99.90
67897;DHT22;54698;48.428;9.964;2022-09-13T01:27:36;11.20;99.90
67897;DHT22;54698;48.428;9.964;2022-09-13T01:30:16;11.00;99.90
67897;DHT22;54698;48.428;9.964;2022-09-13T01:35:46;10.60;99.90
67897;DHT22;54698;48.428;9.964;2022-09-13T01:38:30;10.60;99.90
67897;DHT22;54698;48.428;9.964;2022-09-13T01:41:12;10.50;99.90
67897;DHT22;54698;48.428;9.964;2022-09-13T01:43:55;10.40;99.90
67897;DHT22;54698;48.428;9.964;2022-09-13T01:46:25;10.40;99.90
67897;DHT22;54698;48.428;9.964;2022-09-13T01:48:55;10.50;99.90
67897;DHT22;54698;48.428;9.964;2022-09-13T01:51:29;10.70;99.90
67897;DHT22;54698;48.428;9.964;2022-09-13T01:54:08;11.00;99.90
67897;DHT22;54698;48.428;9.964;2022-09-13T01:56:41;11.10;99.90
67897;DHT22;54698;48.428;9.964;2022-09-13T01:59:12;11.30;99.90
67897;DHT22;54698;48.428;9.964;2022-09-13T02:01:45;11.40;99.90
67897;DHT22;54698;48.428;9.964;2022-09-13T02:04:18;11.50;99.90
67897;DHT22;54698;48.428;9.964;2022-09-13T02:06:50;11.40;99.90
67897;DHT22;54698;48.428;9.964;2022-09-13T02:09:20;11.30;99.90
67897;DHT22;54698;48.428;9.964;2022-09-13T02:11:52;11.40;99.90
67897;DHT22;54698;48.428;9.964;2022-09-13T02:14:23;11.30;99.90
67897;DHT22;54698;48.428;9.964;2022-09-13T02:16:55;11.30;99.90
67897;DHT22;54698;48.428;9.964;2022-09-13T02:19:26;11.30;99.90
67897;DHT22;54698;48.428;9.964;2022-09-13T02:21:58;11.40;99.90
67897;DHT22;54698;48.428;9.964;2022-09-13T02:24:29;11.40;99.90
67897;DHT22;54698;48.428;9.964;2022-09-13T02:27:00;11.30;99.90
67897;DHT22;54698;48.428;9.964;2022-09-13T02:29:28;11.30;99.90
67897;DHT22;54698;48.428;9.964;2022-09-13T02:32:02;11.20;99.90
67897;DHT22;54698;48.428;9.964;2022-09-13T02:34:33;11.00;99.90
67897;DHT22;54698;48.428;9.964;2022-09-13T02:37:03;10.90;99.90
67897;DHT22;54698;48.428;9.964;2022-09-13T02:39:31;10.70;99.90
67897;DHT22;54698;48.428;9.964;2022-09-13T02:42:03;10.60;99.90
67897;DHT22;54698;48.428;9.964;2022-09-13T02:44:34;10.70;99.90
67897;DHT22;54698;48.428;9.964;2022-09-13T02:47:12;10.70;99.90
67897;DHT22;54698;48.428;9.964;2022-09-13T02:49:54;10.90;99.90
67897;DHT22;54698;48.428;9.964;2022-09-13T02:52:31;10.90;99.90
67897;DHT22;54698;48.428;9.964;2022-09-13T02:55:12;11.00;99.90
67897;DHT22;54698;48.428;9.964;2022-09-13T02:57:47;11.00;99.90
67897;DHT22;54698;48.428;9.964;2022-09-13T03:00:18;10.90;99.90
67897;DHT22;54698;48.428;9.964;2022-09-13T03:02:46;11.10;99.90
67897;DHT22;54698;48.428;9.964;2022-09-13T03:05:13;11.40;99.90
67897;DHT22;54698;48.428;9.964;2022-09-13T03:07:39;11.40;99.90
67897;DHT22;54698;48.428;9.964;2022-09-13T03:10:07;11.40;99.90
67897;DHT22;54698;48.428;9.964;2022-09-13T03:13:00;11.50;99.90
67897;DHT22;54698;48.428;9.964;2022-09-13T03:16:02;11.40;99.90
67897;DHT22;54698;48.428;9.964;2022-09-13T03:18:41;11.40;99.90
67897;DHT22;54698;48.428;9.964;2022-09-13T03:21:22;11.30;99.90
67897;DHT22;54698;48.428;9.964;2022-09-13T03:24:05;11.20;99.90
67897;DHT22;54698;48.428;9.964;2022-09-13T03:26:44;11.20;99.90
67897;DHT22;54698;48.428;9.964;2022-09-13T03:29:25;11.10;99.90
67897;DHT22;54698;48.428;9.964;2022-09-13T03:32:01;11.10;99.90
67897;DHT22;54698;48.428;9.964;2022-09-13T03:34:37;11.10;99.90
67897;DHT22;54698;48.428;9.964;2022-09-13T03:37:15;11.00;99.90
67897;DHT22;54698;48.428;9.964;2022-09-13T03:39:48;11.10;99.90
67897;DHT22;54698;48.428;9.964;2022-09-13T03:42:21;11.00;99.90
67897;DHT22;54698;48.428;9.964;2022-09-13T03:44:50;11.00;99.90
67897;DHT22;54698;48.428;9.964;2022-09-13T03:47:18;10.90;99.90
67897;DHT22;54698;48.428;9.964;2022-09-13T03:49:45;10.80;99.90
67897;DHT22;54698;48.428;9.964;2022-09-13T03:52:12;10.70;99.90
67897;DHT22;54698;48.428;9.964;2022-09-13T03:54:38;10.60;99.90
67897;DHT22;54698;48.428;9.964;2022-09-13T03:57:09;10.70;99.90
67897;DHT22;54698;48.428;9.964;2022-09-13T03:59:36;10.60;99.90
67897;DHT22;54698;48.428;9.964;2022-09-13T04:02:05;10.50;99.90
67897;DHT22;54698;48.428;9.964;2022-09-13T04:04:31;10.40;99.90
67897;DHT22;54698;48.428;9.964;2022-09-13T04:07:00;10.50;99.90
67897;DHT22;54698;48.428;9.964;2022-09-13T04:09:26;10.70;99.90
67897;DHT22;54698;48.428;9.964;2022-09-13T04:11:51;10.90;99.90
67897;DHT22;54698;48.428;9.964;2022-09-13T04:14:17;11.20;99.90
67897;DHT22;54698;48.428;9.964;2022-09-13T04:16:43;11.30;99.90
67897;DHT22;54698;48.428;9.964;2022-09-13T04:19:09;11.60;99.90
67897;DHT22;54698;48.428;9.964;2022-09-13T04:21:34;11.80;99.90
67897;DHT22;54698;48.428;9.964;2022-09-13T04:24:02;11.90;99.90
67897;DHT22;54698;48.428;9.964;2022-09-13T04:26:28;12.00;99.90
67897;DHT22;54698;48.428;9.964;2022-09-13T04:28:54;12.10;99.90
67897;DHT22;54698;48.428;9.964;2022-09-13T04:31:20;12.20;99.90
67897;DHT22;54698;48.428;9.964;2022-09-13T04:33:48;12.30;99.90
67897;DHT22;54698;48.428;9.964;2022-09-13T04:36:14;12.30;99.90
67897;DHT22;54698;48.428;9.964;2022-09-13T04:38:39;12.20;99.90
67897;DHT22;54698;48.428;9.964;2022-09-13T04:41:06;12.00;99.90
67897;DHT22;54698;48.428;9.964;2022-09-13T04:43:32;11.90;99.90
67897;DHT22;54698;48.428;9.964;2022-09-13T04:45:59;11.80;99.90
67897;DHT22;54698;48.428;9.964;2022-09-13T04:48:25;11.60;99.90
67897;DHT22;54698;48.428;9.964;2022-09-13T04:50:50;11.50;99.90
67897;DHT22;54698;48.428;9.964;2022-09-13T04:53:16;11.40;99.90
67897;DHT22;54698;48.428;9.964;2022-09-13T04:55:42;11.30;99.90
67897;DHT22;54698;48.428;9.964;2022-09-13T04:58:09;11.40;99.90
67897;DHT22;54698;48.428;9.964;2022-09-13T05:00:35;11.40;99.90
67897;DHT22;54698;48.428;9.964;2022-09-13T05:03:01;11.60;99.90
67897;DHT22;54698;48.428;9.964;2022-09-13T05:05:27;11.70;99.90
67897;DHT22;54698;48.428;9.964;2022-09-13T05:07:53;11.80;99.90
67897;DHT22;54698;48.428;9.964;2022-09-13T05:10:19;11.90;99.90
67897;DHT22;54698;48.428;9.964;2022-09-13T05:12:44;11.90;99.90
67897;DHT22;54698;48.428;9.964;2022-09-13T05:15:12;12.00;99.90
67897;DHT22;54698;48.428;9.964;2022-09-13T05:17:38;12.00;99.90
67897;DHT22;54698;48.428;9.964;2022-09-13T05:20:05;12.10;99.90
67897;DHT22;54698;48.428;9.964;2022-09-13T05:22:31;12.10;99.90
67897;DHT22;54698;48.428;9.964;2022-09-13T05:24:57;12.10;99.90
67897;DHT22;54698;48.428;9.964;2022-09-13T05:27:23;12.20;99.90
67897;DHT22;54698;48.428;9.964;2022-09-13T05:29:48;11.90;99.90
67897;DHT22;54698;48.428;9.964;2022-09-13T05:32:15;11.60;99.90
67897;DHT22;54698;48.428;9.964;2022-09-13T05:34:41;11.50;99.90
67897;DHT22;54698;48.428;9.964;2022-09-13T05:37:07;11.60;99.90
67897;DHT22;54698;48.428;9.964;2022-09-13T05:39:33;11.80;99.90
67897;DHT22;54698;48.428;9.964;2022-09-13T05:41:59;12.10;99.90
67897;DHT22;54698;48.428;9.964;2022-09-13T05:44:24;12.20;99.90
67897;DHT22;54698;48.428;9.964;2022-09-13T05:46:50;12.30;99.90
67897;DHT22;54698;48.428;9.964;2022-09-13T05:49:17;12.30;99.90
67897;DHT22;54698;48.428;9.964;2022-09-13T05:51:43;12.50;99.90
67897;DHT22;54698;48.428;9.964;2022-09-13T05:54:11;12.70;99.90
67897;DHT22;54698;48.428;9.964;2022-09-13T05:56:37;12.90;99.90
67897;DHT22;54698;48.428;9.964;2022-09-13T05:59:03;13.00;99.90
67897;DHT22;54698;48.428;9.964;2022-09-13T06:01:29;13.20;99.90
67897;DHT22;54698;48.428;9.964;2022-09-13T06:03:56;13.40;99.90
67897;DHT22;54698;48.428;9.964;2022-09-13T06:06:24;13.50;99.90
67897;DHT22;54698;48.428;9.964;2022-09-13T06:08:51;13.70;99.90
67897;DHT22;54698;48.428;9.964;2022-09-13T06:11:18;13.90;99.90
67897;DHT22;54698;48.428;9.964;2022-09-13T06:13:44;14.00;99.90
67897;DHT22;54698;48.428;9.964;2022-09-13T06:16:11;14.10;99.90
67897;DHT22;54698;48.428;9.964;2022-09-13T06:18:38;13.80;99.90
67897;DHT22;54698;48.428;9.964;2022-09-13T06:21:06;13.40;99.90
67897;DHT22;54698;48.428;9.964;2022-09-13T06:23:34;13.20;99.90
67897;DHT22;54698;48.428;9.964;2022-09-13T06:26:02;13.10;99.90
67897;DHT22;54698;48.428;9.964;2022-09-13T06:28:28;13.10;99.90
67897;DHT22;54698;48.428;9.964;2022-09-13T06:30:59;13.10;99.90
67897;DHT22;54698;48.428;9.964;2022-09-13T06:33:26;13.20;99.90
67897;DHT22;54698;48.428;9.964;2022-09-13T06:35:51;13.30;99.90
67897;DHT22;54698;48.428;9.964;2022-09-13T06:38:17;13.50;99.90
67897;DHT22;54698;48.428;9.964;2022-09-13T06:40:44;13.60;99.90
67897;DHT22;54698;48.428;9.964;2022-09-13T06:43:10;13.60;99.90
67897;DHT22;54698;48.428;9.964;2022-09-13T06:45:36;13.70;99.90
67897;DHT22;54698;48.428;9.964;2022-09-13T06:48:02;13.70;99.90
67897;DHT22;54698;48.428;9.964;2022-09-13T06:50:28;13.80;99.90
67897;DHT22;54698;48.428;9.964;2022-09-13T06:52:55;13.90;99.90
67897;DHT22;54698;48.428;9.964;2022-09-13T06:55:21;14.10;99.90
67897;DHT22;54698;48.428;9.964;2022-09-13T06:57:48;14.10;99.90
67897;DHT22;54698;48.428;9.964;2022-09-13T07:00:14;14.30;99.90
67897;DHT22;54698;48.428;9.964;2022-09-13T07:02:40;14.40;99.90
67897;DHT22;54698;48.428;9.964;2022-09-13T07:05:07;14.70;99.90
67897;DHT22;54698;48.428;9.964;2022-09-13T07:07:33;15.10;99.90
67897;DHT22;54698;48.428;9.964;2022-09-13T07:09:59;15.50;99.90
67897;DHT22;54698;48.428;9.964;2022-09-13T07:12:24;15.80;99.90
67897;DHT22;54698;48.428;9.964;2022-09-13T07:14:51;16.10;99.90
67897;DHT22;54698;48.428;9.964;2022-09-13T07:17:17;16.40;99.90
67897;DHT22;54698;48.428;9.964;2022-09-13T07:19:43;16.70;99.90
67897;DHT22;54698;48.428;9.964;2022-09-13T07:22:09;16.90;99.90
67897;DHT22;54698;48.428;9.964;2022-09-13T07:24:35;17.10;99.90
67897;DHT22;54698;48.428;9.964;2022-09-13T07:27:00;17.20;99.90
67897;DHT22;54698;48.428;9.964;2022-09-13T07:29:26;17.40;99.90
67897;DHT22;54698;48.428;9.964;2022-09-13T07:31:54;17.60;99.90
67897;DHT22;54698;48.428;9.964;2022-09-13T07:34:22;17.80;99.90
67897;DHT22;54698;48.428;9.964;2022-09-13T07:36:49;18.00;99.90
67897;DHT22;54698;48.428;9.964;2022-09-13T07:39:15;18.20;99.90
67897;DHT22;54698;48.428;9.964;2022-09-13T07:41:42;18.40;99.90
67897;DHT22;54698;48.428;9.964;2022-09-13T07:44:09;18.50;99.90
67897;DHT22;54698;48.428;9.964;2022-09-13T07:46:35;18.80;99.90
67897;DHT22;54698;48.428;9.964;2022-09-13T07:49:03;19.00;99.90
67897;DHT22;54698;48.428;9.964;2022-09-13T07:51:30;19.20;99.90
67897;DHT22;54698;48.428;9.964;2022-09-13T07:53:58;19.30;99.90
67897;DHT22;54698;48.428;9.964;2022-09-13T07:56:26;19.20;99.90
67897;DHT22;54698;48.428;9.964;2022-09-13T07:58:53;19.10;99.90
67897;DHT22;54698;48.428;9.964;2022-09-13T08:01:21;19.10;99.90
67897;DHT22;54698;48.428;9.964;2022-09-13T08:03:50;19.10;99.90
67897;DHT22;54698;48.428;9.964;2022-09-13T08:06:18;19.30;99.90
67897;DHT22;54698;48.428;9.964;2022-09-13T08:08:43;19.40;99.90
67897;DHT22;54698;48.428;9.964;2022-09-13T08:11:14;19.50;99.90
67897;DHT22;54698;48.428;9.964;2022-09-13T08:13:41;19.60;99.90
67897;DHT22;54698;48.428;9.964;2022-09-13T08:16:06;19.80;99.90
67897;DHT22;54698;48.428;9.964;2022-09-13T08:18:32;19.80;99.90
67897;DHT22;54698;48.428;9.964;2022-09-13T08:20:59;20.10;99.90
67897;DHT22;54698;48.428;9.964;2022-09-13T08:23:27;20.40;99.90
67897;DHT22;54698;48.428;9.964;2022-09-13T08:25:53;20.70;99.90
67897;DHT22;54698;48.428;9.964;2022-09-13T08:28:20;20.90;99.90
67897;DHT22;54698;48.428;9.964;2022-09-13T08:30:46;21.00;99.90
67897;DHT22;54698;48.428;9.964;2022-09-13T08:33:13;21.00;99.90
67897;DHT22;54698;48.428;9.964;2022-09-13T08:35:39;21.30;99.90
67897;DHT22;54698;48.428;9.964;2022-09-13T08:38:06;21.60;99.90
67897;DHT22;54698;48.428;9.964;2022-09-13T08:40:39;21.80;99.90
67897;DHT22;54698;48.428;9.964;2022-09-13T08:43:12;21.70;99.90
67897;DHT22;54698;48.428;9.964;2022-09-13T08:45:40;21.70;99.90
67897;DHT22;54698;48.428;9.964;2022-09-13T08:48:12;21.80;99.90
67897;DHT22;54698;48.428;9.964;2022-09-13T08:50:40;22.00;99.90
67897;DHT22;54698;48.428;9.964;2022-09-13T08:53:16;22.10;99.90
67897;DHT22;54698;48.428;9.964;2022-09-13T08:55:54;22.40;99.20
67897;DHT22;54698;48.428;9.964;2022-09-13T08:58:33;22.60;99.70
67897;DHT22;54698;48.428;9.964;2022-09-13T09:01:07;22.60;99.40
67897;DHT22;54698;48.428;9.964;2022-09-13T09:03:40;22.50;99.50
67897;DHT22;54698;48.428;9.964;2022-09-13T09:06:11;22.40;98.80
67897;DHT22;54698;48.428;9.964;2022-09-13T09:08:42;22.50;99.10
67897;DHT22;54698;48.428;9.964;2022-09-13T09:11:19;22.40;99.00
67897;DHT22;54698;48.428;9.964;2022-09-13T09:13:54;22.50;97.40
67897;DHT22;54698;48.428;9.964;2022-09-13T09:16:29;22.70;98.90
67897;DHT22;54698;48.428;9.964;2022-09-13T09:19:05;23.20;99.10
67897;DHT22;54698;48.428;9.964;2022-09-13T09:21:35;23.20;97.70
67897;DHT22;54698;48.428;9.964;2022-09-13T09:24:02;23.60;97.60
67897;DHT22;54698;48.428;9.964;2022-09-13T09:26:30;23.70;97.20
67897;DHT22;54698;48.428;9.964;2022-09-13T09:28:59;24.20;98.00
67897;DHT22;54698;48.428;9.964;2022-09-13T09:31:33;24.40;95.60
67897;DHT22;54698;48.428;9.964;2022-09-13T09:34:12;24.60;95.80
67897;DHT22;54698;48.428;9.964;2022-09-13T09:36:45;25.00;96.10
67897;DHT22;54698;48.428;9.964;2022-09-13T09:39:16;25.30;94.10
67897;DHT22;54698;48.428;9.964;2022-09-13T09:41:43;25.60;95.50
67897;DHT22;54698;48.428;9.964;2022-09-13T09:44:19;25.90;93.90
67897;DHT22;54698;48.428;9.964;2022-09-13T09:46:49;26.10;92.40
67897;DHT22;54698;48.428;9.964;2022-09-13T09:49:23;26.40;90.60
67897;DHT22;54698;48.428;9.964;2022-09-13T09:51:52;26.80;88.10
67897;DHT22;54698;48.428;9.964;2022-09-13T09:54:19;27.30;85.90
67897;DHT22;54698;48.428;9.964;2022-09-13T09:56:52;27.80;84.30
67897;DHT22;54698;48.428;9.964;2022-09-13T09:59:25;28.10;76.20
67897;DHT22;54698;48.428;9.964;2022-09-13T10:01:52;28.20;77.90
67897;DHT22;54698;48.428;9.964;2022-09-13T10:04:20;28.10;79.90
67897;DHT22;54698;48.428;9.964;2022-09-13T10:06:46;28.00;77.60
67897;DHT22;54698;48.428;9.964;2022-09-13T10:09:15;27.90;77.50
67897;DHT22;54698;48.428;9.964;2022-09-13T10:11:45;27.80;75.40
67897;DHT22;54698;48.428;9.964;2022-09-13T10:14:35;27.70;75.10
67897;DHT22;54698;48.428;9.964;2022-09-13T10:17:04;27.80;73.90
67897;DHT22;54698;48.428;9.964;2022-09-13T10:19:39;27.80;73.90
67897;DHT22;54698;48.428;9.964;2022-09-13T10:22:10;27.90;71.10
67897;DHT22;54698;48.428;9.964;2022-09-13T10:24:38;27.90;71.30
67897;DHT22;54698;48.428;9.964;2022-09-13T10:27:04;27.80;72.20
67897;DHT22;54698;48.428;9.964;2022-09-13T10:29:48;27.70;69.70
67897;DHT22;54698;48.428;9.964;2022-09-13T10:32:16;27.40;70.10
67897;DHT22;54698;48.428;9.964;2022-09-13T10:34:44;27.40;74.30
67897;DHT22;54698;48.428;9.964;2022-09-13T10:37:14;27.80;72.00
67897;DHT22;54698;48.428;9.964;2022-09-13T10:39:52;27.70;69.00
67897;DHT22;54698;48.428;9.964;2022-09-13T10:42:22;27.70;69.20
67897;DHT22;54698;48.428;9.964;2022-09-13T10:44:53;27.60;68.70
67897;DHT22;54698;48.428;9.964;2022-09-13T10:47:23;27.40;62.10
67897;DHT22;54698;48.428;9.964;2022-09-13T10:49:52;26.90;64.80
67897;DHT22;54698;48.428;9.964;2022-09-13T10:52:30;26.10;66.90
67897;DHT22;54698;48.428;9.964;2022-09-13T10:58:12;26.50;70.80
67897;DHT22;54698;48.428;9.964;2022-09-13T11:01:15;26.80;66.70
67897;DHT22;54698;48.428;9.964;2022-09-13T11:07:39;29.10;58.60
67897;DHT22;54698;48.428;9.964;2022-09-13T11:10:20;29.00;54.80
67897;DHT22;54698;48.428;9.964;2022-09-13T11:12:55;29.80;58.20
67897;DHT22;54698;48.428;9.964;2022-09-13T11:15:38;31.00;57.70
67897;DHT22;54698;48.428;9.964;2022-09-13T11:18:26;31.60;53.00
67897;DHT22;54698;48.428;9.964;2022-09-13T11:21:30;31.60;51.30
67897;DHT22;54698;48.428;9.964;2022-09-13T11:24:22;31.50;53.20
67897;DHT22;54698;48.428;9.964;2022-09-13T11:27:00;31.50;55.90
67897;DHT22;54698;48.428;9.964;2022-09-13T11:29:45;31.80;55.50
67897;DHT22;54698;48.428;9.964;2022-09-13T11:32:29;31.90;52.50
67897;DHT22;54698;48.428;9.964;2022-09-13T11:35:19;32.50;54.10
67897;DHT22;54698;48.428;9.964;2022-09-13T11:37:57;33.20;51.30
67897;DHT22;54698;48.428;9.964;2022-09-13T11:40:34;34.10;46.20
67897;DHT22;54698;48.428;9.964;2022-09-13T11:43:18;34.10;44.90
67897;DHT22;54698;48.428;9.964;2022-09-13T11:46:00;33.70;45.40
67897;DHT22;54698;48.428;9.964;2022-09-13T11:51:44;34.70;43.40
67897;DHT22;54698;48.428;9.964;2022-09-13T11:54:27;35.20;42.40
67897;DHT22;54698;48.428;9.964;2022-09-13T11:57:03;34.90;42.80
67897;DHT22;54698;48.428;9.964;2022-09-13T11:59:36;33.90;44.70
67897;DHT22;54698;48.428;9.964;2022-09-13T12:02:17;33.70;47.60
67897;DHT22;54698;48.428;9.964;2022-09-13T12:04:48;33.50;46.00
67897;DHT22;54698;48.428;9.964;2022-09-13T12:07:26;34.10;45.70
67897;DHT22;54698;48.428;9.964;2022-09-13T12:09:59;34.50;45.20
67897;DHT22;54698;48.428;9.964;2022-09-13T12:12:32;34.50;44.60
67897;DHT22;54698;48.428;9.964;2022-09-13T12:15:02;34.50;44.10
67897;DHT22;54698;48.428;9.964;2022-09-13T12:17:35;35.00;43.50
67897;DHT22;54698;48.428;9.964;2022-09-13T12:20:05;35.50;43.50
67897;DHT22;54698;48.428;9.964;2022-09-13T12:22:39;35.60;42.00
67897;DHT22;54698;48.428;9.964;2022-09-13T12:25:16;36.10;43.40
67897;DHT22;54698;48.428;9.964;2022-09-13T12:27:50;36.90;40.90
67897;DHT22;54698;48.428;9.964;2022-09-13T12:30:21;37.00;40.60
67897;DHT22;54698;48.428;9.964;2022-09-13T12:32:48;36.50;38.10
67897;DHT22;54698;48.428;9.964;2022-09-13T12:35:21;35.80;39.80
67897;DHT22;54698;48.428;9.964;2022-09-13T12:38:15;35.90;40.10
67897;DHT22;54698;48.428;9.964;2022-09-13T12:41:11;36.00;39.50
67897;DHT22;54698;48.428;9.964;2022-09-13T12:43:52;36.50;37.80
67897;DHT22;54698;48.428;9.964;2022-09-13T12:46:50;37.00;37.70
67897;DHT22;54698;48.428;9.964;2022-09-13T12:49:47;36.90;37.60
67897;DHT22;54698;48.428;9.964;2022-09-13T12:52:29;35.70;39.60
67897;DHT22;54698;48.428;9.964;2022-09-13T12:55:22;35.50;37.20
67897;DHT22;54698;48.428;9.964;2022-09-13T12:58:02;35.20;37.20
67897;DHT22;54698;48.428;9.964;2022-09-13T13:00:42;34.80;40.80
67897;DHT22;54698;48.428;9.964;2022-09-13T13:03:14;34.50;39.80
67897;DHT22;54698;48.428;9.964;2022-09-13T13:05:43;34.40;36.30
67897;DHT22;54698;48.428;9.964;2022-09-13T13:08:26;34.70;38.30
67897;DHT22;54698;48.428;9.964;2022-09-13T13:11:02;34.80;40.30
67897;DHT22;54698;48.428;9.964;2022-09-13T13:13:33;34.40;40.10
67897;DHT22;54698;48.428;9.964;2022-09-13T13:16:05;34.40;37.30
67897;DHT22;54698;48.428;9.964;2022-09-13T13:18:46;33.90;39.30
67897;DHT22;54698;48.428;9.964;2022-09-13T13:21:26;33.80;40.50
67897;DHT22;54698;48.428;9.964;2022-09-13T13:27:35;31.50;42.70
67897;DHT22;54698;48.428;9.964;2022-09-13T13:30:37;30.60;47.00
67897;DHT22;54698;48.428;9.964;2022-09-13T13:33:15;30.10;47.00
67897;DHT22;54698;48.428;9.964;2022-09-13T13:35:42;29.90;45.10
67897;DHT22;54698;48.428;9.964;2022-09-13T13:38:29;29.60;46.90
67897;DHT22;54698;48.428;9.964;2022-09-13T13:41:04;29.40;47.20
67897;DHT22;54698;48.428;9.964;2022-09-13T13:43:34;29.20;50.40
67897;DHT22;54698;48.428;9.964;2022-09-13T13:46:27;29.20;51.80
67897;DHT22;54698;48.428;9.964;2022-09-13T13:48:55;29.10;52.70
67897;DHT22;54698;48.428;9.964;2022-09-13T13:51:24;29.10;51.30
67897;DHT22;54698;48.428;9.964;2022-09-13T13:53:58;29.10;54.30
67897;DHT22;54698;48.428;9.964;2022-09-13T13:56:48;29.10;56.30
67897;DHT22;54698;48.428;9.964;2022-09-13T13:59:21;29.30;55.30
67897;DHT22;54698;48.428;9.964;2022-09-13T14:01:51;29.40;49.10
67897;DHT22;54698;48.428;9.964;2022-09-13T14:07:49;30.10;49.00
67897;DHT22;54698;48.428;9.964;2022-09-13T14:10:27;30.60;47.80
67897;DHT22;54698;48.428;9.964;2022-09-13T14:13:13;30.80;45.70
67897;DHT22;54698;48.428;9.964;2022-09-13T14:15:51;30.90;43.60
67897;DHT22;54698;48.428;9.964;2022-09-13T14:18:50;31.10;42.70
67897;DHT22;54698;48.428;9.964;2022-09-13T14:21:23;31.20;43.30
67897;DHT22;54698;48.428;9.964;2022-09-13T14:23:54;31.30;49.10
67897;DHT22;54698;48.428;9.964;2022-09-13T14:26:32;31.20;46.60
67897;DHT22;54698;48.428;9.964;2022-09-13T14:28:58;31.00;47.40
67897;DHT22;54698;48.428;9.964;2022-09-13T14:31:25;30.90;47.60
67897;DHT22;54698;48.428;9.964;2022-09-13T14:33:51;30.80;49.50
67897;DHT22;54698;48.428;9.964;2022-09-13T14:36:19;30.80;50.10
67897;DHT22;54698;48.428;9.964;2022-09-13T14:38:47;30.60;50.90
67897;DHT22;54698;48.428;9.964;2022-09-13T14:41:16;30.50;51.20
67897;DHT22;54698;48.428;9.964;2022-09-13T14:43:44;30.40;49.60
67897;DHT22;54698;48.428;9.964;2022-09-13T14:46:16;30.30;50.10
67897;DHT22;54698;48.428;9.964;2022-09-13T14:48:48;30.50;49.60
67897;DHT22;54698;48.428;9.964;2022-09-13T14:51:19;30.80;50.60
67897;DHT22;54698;48.428;9.964;2022-09-13T14:53:49;31.30;49.00
67897;DHT22;54698;48.428;9.964;2022-09-13T14:56:26;31.40;48.90
67897;DHT22;54698;48.428;9.964;2022-09-13T14:58:55;31.40;49.80
67897;DHT22;54698;48.428;9.964;2022-09-13T15:01:26;31.20;50.20
67897;DHT22;54698;48.428;9.964;2022-09-13T15:03:55;31.00;49.70
67897;DHT22;54698;48.428;9.964;2022-09-13T15:06:25;30.70;50.10
67897;DHT22;54698;48.428;9.964;2022-09-13T15:08:54;30.50;51.50
67897;DHT22;54698;48.428;9.964;2022-09-13T15:11:30;30.20;51.90
67897;DHT22;54698;48.428;9.964;2022-09-13T15:14:21;29.90;51.80
67897;DHT22;54698;48.428;9.964;2022-09-13T15:16:50;29.80;52.80
67897;DHT22;54698;48.428;9.964;2022-09-13T15:19:29;30.30;53.50
67897;DHT22;54698;48.428;9.964;2022-09-13T15:22:19;31.10;51.70
67897;DHT22;54698;48.428;9.964;2022-09-13T15:24:48;32.50;48.10
67897;DHT22;54698;48.428;9.964;2022-09-13T15:27:19;33.90;47.50
67897;DHT22;54698;48.428;9.964;2022-09-13T15:29:51;34.20;45.50
67897;DHT22;54698;48.428;9.964;2022-09-13T15:32:23;33.70;45.00
67897;DHT22;54698;48.428;9.964;2022-09-13T15:34:56;32.90;45.90
67897;DHT22;54698;48.428;9.964;2022-09-13T15:37:29;31.90;48.80
67897;DHT22;54698;48.428;9.964;2022-09-13T15:40:18;30.90;49.40
67897;DHT22;54698;48.428;9.964;2022-09-13T15:42:49;29.90;52.60
67897;DHT22;54698;48.428;9.964;2022-09-13T15:45:17;29.20;55.00
67897;DHT22;54698;48.428;9.964;2022-09-13T15:47:46;28.70;57.10
67897;DHT22;54698;48.428;9.964;2022-09-13T15:50:21;28.30;58.40
67897;DHT22;54698;48.428;9.964;2022-09-13T15:52:48;27.90;59.60
67897;DHT22;54698;48.428;9.964;2022-09-13T15:55:14;27.60;59.60
67897;DHT22;54698;48.428;9.964;2022-09-13T15:57:43;27.40;62.30
67897;DHT22;54698;48.428;9.964;2022-09-13T16:00:14;27.10;64.20
67897;DHT22;54698;48.428;9.964;2022-09-13T16:02:41;26.90;63.90
67897;DHT22;54698;48.428;9.964;2022-09-13T16:05:07;26.70;63.60
67897;DHT22;54698;48.428;9.964;2022-09-13T16:07:34;26.60;61.40
67897;DHT22;54698;48.428;9.964;2022-09-13T16:10:00;26.40;62.30
67897;DHT22;54698;48.428;9.964;2022-09-13T16:12:26;26.20;66.10
67897;DHT22;54698;48.428;9.964;2022-09-13T16:14:52;26.10;66.30
67897;DHT22;54698;48.428;9.964;2022-09-13T16:17:20;26.10;66.60
67897;DHT22;54698;48.428;9.964;2022-09-13T16:19:47;26.00;66.00